sensor_id;sensor_type;location;lat;lon;timestamp;P1;durP1;ratioP1;P2;durP2;ratioP2
19869;SDS011;10097;50.862;4.696;2023-05-10T00:01:37;19.27;;;6.77;;
19869;SDS011;10097;50.862;4.696;2023-05-10T00:04:03;16.80;;;6.77;;
19869;SDS011;10097;50.862;4.696;2023-05-10T00:06:29;18.70;;;7.30;;
19869;SDS011;10097;50.862;4.696;2023-05-10T00:08:55;18.40;;;8.37;;
19869;SDS011;10097;50.862;4.696;2023-05-10T00:11:20;16.80;;;6.73;;
19869;SDS011;10097;50.862;4.696;2023-05-10T00:13:46;16.80;;;7.80;;
19869;SDS011;10097;50.862;4.696;2023-05-10T00:16:12;21.67;;;7.63;;
19869;SDS011;10097;50.862;4.696;2023-05-10T00:18:38;16.47;;;7.73;;
19869;SDS011;10097;50.862;4.696;2023-05-10T00:21:04;17.43;;;8.10;;
19869;SDS011;10097;50.862;4.696;2023-05-10T00:23:31;19.33;;;8.73;;
19869;SDS011;10097;50.862;4.696;2023-05-10T00:25:56;19.40;;;8.23;;
19869;SDS011;10097;50.862;4.696;2023-05-10T00:28:22;16.87;;;8.13;;
19869;SDS011;10097;50.862;4.696;2023-05-10T00:30:48;15.63;;;8.77;;
19869;SDS011;10097;50.862;4.696;2023-05-10T00:33:13;16.60;;;8.43;;
19869;SDS011;10097;50.862;4.696;2023-05-10T00:35:39;19.37;;;8.27;;
19869;SDS011;10097;50.862;4.696;2023-05-10T00:38:05;18.23;;;8.10;;
19869;SDS011;10097;50.862;4.696;2023-05-10T00:40:31;18.93;;;8.20;;
19869;SDS011;10097;50.862;4.696;2023-05-10T00:42:57;27.00;;;10.03;;
19869;SDS011;10097;50.862;4.696;2023-05-10T00:45:23;20.87;;;9.27;;
19869;SDS011;10097;50.862;4.696;2023-05-10T00:47:50;18.00;;;9.40;;
19869;SDS011;10097;50.862;4.696;2023-05-10T00:50:19;18.37;;;8.40;;
19869;SDS011;10097;50.862;4.696;2023-05-10T00:52:46;16.80;;;8.20;;
19869;SDS011;10097;50.862;4.696;2023-05-10T00:55:11;14.87;;;8.17;;
19869;SDS011;10097;50.862;4.696;2023-05-10T00:57:37;17.27;;;8.73;;
19869;SDS011;10097;50.862;4.696;2023-05-10T01:00:03;22.67;;;8.13;;
19869;SDS011;10097;50.862;4.696;2023-05-10T01:02:30;18.37;;;8.53;;
19869;SDS011;10097;50.862;4.696;2023-05-10T01:04:55;16.53;;;8.90;;
19869;SDS011;10097;50.862;4.696;2023-05-10T01:07:21;20.03;;;8.13;;
19869;SDS011;10097;50.862;4.696;2023-05-10T01:09:47;18.73;;;8.33;;
19869;SDS011;10097;50.862;4.696;2023-05-10T01:12:12;21.63;;;9.43;;
19869;SDS011;10097;50.862;4.696;2023-05-10T01:14:38;16.87;;;8.20;;
19869;SDS011;10097;50.862;4.696;2023-05-10T01:17:05;19.23;;;9.03;;
19869;SDS011;10097;50.862;4.696;2023-05-10T01:19:32;21.17;;;9.63;;
19869;SDS011;10097;50.862;4.696;2023-05-10T01:25:25;22.03;;;8.33;;
19869;SDS011;10097;50.862;4.696;2023-05-10T01:38:52;25.63;;;10.00;;
19869;SDS011;10097;50.862;4.696;2023-05-10T01:44:35;21.73;;;10.40;;
19869;SDS011;10097;50.862;4.696;2023-05-10T01:47:15;22.07;;;9.73;;
19869;SDS011;10097;50.862;4.696;2023-05-10T01:49:45;18.77;;;9.53;;
19869;SDS011;10097;50.862;4.696;2023-05-10T01:52:15;19.40;;;10.90;;
19869;SDS011;10097;50.862;4.696;2023-05-10T01:54:50;21.73;;;10.33;;
19869;SDS011;10097;50.862;4.696;2023-05-10T01:57:21;26.93;;;10.83;;
19869;SDS011;10097;50.862;4.696;2023-05-10T01:59:50;24.30;;;11.67;;
19869;SDS011;10097;50.862;4.696;2023-05-10T02:02:17;23.50;;;11.67;;
19869;SDS011;10097;50.862;4.696;2023-05-10T02:04:45;24.20;;;10.47;;
19869;SDS011;10097;50.862;4.696;2023-05-10T02:07:12;21.73;;;10.90;;
19869;SDS011;10097;50.862;4.696;2023-05-10T02:09:39;25.63;;;11.17;;
19869;SDS011;10097;50.862;4.696;2023-05-10T02:12:09;28.13;;;11.13;;
19869;SDS011;10097;50.862;4.696;2023-05-10T02:14:37;23.57;;;11.67;;
19869;SDS011;10097;50.862;4.696;2023-05-10T02:17:05;21.53;;;12.00;;
19869;SDS011;10097;50.862;4.696;2023-05-10T02:19:32;21.67;;;11.27;;
19869;SDS011;10097;50.862;4.696;2023-05-10T02:22:00;18.57;;;10.60;;
19869;SDS011;10097;50.862;4.696;2023-05-10T02:24:28;20.20;;;11.30;;
19869;SDS011;10097;50.862;4.696;2023-05-10T02:26:54;24.73;;;11.23;;
19869;SDS011;10097;50.862;4.696;2023-05-10T02:29:21;26.97;;;11.83;;
19869;SDS011;10097;50.862;4.696;2023-05-10T02:31:49;24.60;;;12.27;;
19869;SDS011;10097;50.862;4.696;2023-05-10T02:34:18;21.60;;;11.67;;
19869;SDS011;10097;50.862;4.696;2023-05-10T02:36:46;24.93;;;11.87;;
19869;SDS011;10097;50.862;4.696;2023-05-10T02:39:13;30.03;;;12.67;;
19869;SDS011;10097;50.862;4.696;2023-05-10T02:41:40;23.43;;;11.87;;
19869;SDS011;10097;50.862;4.696;2023-05-10T02:44:07;20.70;;;11.17;;
19869;SDS011;10097;50.862;4.696;2023-05-10T02:46:34;26.67;;;11.80;;
19869;SDS011;10097;50.862;4.696;2023-05-10T02:49:02;22.40;;;12.27;;
19869;SDS011;10097;50.862;4.696;2023-05-10T02:51:30;19.67;;;11.50;;
19869;SDS011;10097;50.862;4.696;2023-05-10T02:54:00;26.13;;;11.93;;
19869;SDS011;10097;50.862;4.696;2023-05-10T02:56:33;25.60;;;11.33;;
19869;SDS011;10097;50.862;4.696;2023-05-10T02:59:00;20.77;;;11.53;;
19869;SDS011;10097;50.862;4.696;2023-05-10T03:01:26;22.77;;;11.33;;
19869;SDS011;10097;50.862;4.696;2023-05-10T03:03:52;20.67;;;10.87;;
19869;SDS011;10097;50.862;4.696;2023-05-10T03:06:18;23.47;;;11.67;;
19869;SDS011;10097;50.862;4.696;2023-05-10T03:08:44;25.67;;;11.47;;
19869;SDS011;10097;50.862;4.696;2023-05-10T03:13:37;25.93;;;12.37;;
19869;SDS011;10097;50.862;4.696;2023-05-10T03:16:19;23.37;;;11.20;;
19869;SDS011;10097;50.862;4.696;2023-05-10T03:21:41;21.10;;;10.63;;
19869;SDS011;10097;50.862;4.696;2023-05-10T03:24:09;19.40;;;10.07;;
19869;SDS011;10097;50.862;4.696;2023-05-10T03:26:37;21.10;;;10.80;;
19869;SDS011;10097;50.862;4.696;2023-05-10T03:29:05;24.20;;;10.40;;
19869;SDS011;10097;50.862;4.696;2023-05-10T03:31:32;20.13;;;9.87;;
19869;SDS011;10097;50.862;4.696;2023-05-10T03:33:58;21.93;;;9.83;;
19869;SDS011;10097;50.862;4.696;2023-05-10T03:36:24;17.73;;;8.93;;
19869;SDS011;10097;50.862;4.696;2023-05-10T03:38:50;20.73;;;9.50;;
19869;SDS011;10097;50.862;4.696;2023-05-10T03:41:15;18.63;;;9.07;;
19869;SDS011;10097;50.862;4.696;2023-05-10T03:43:41;21.87;;;9.03;;
19869;SDS011;10097;50.862;4.696;2023-05-10T03:46:06;21.40;;;9.83;;
19869;SDS011;10097;50.862;4.696;2023-05-10T03:48:32;21.03;;;9.13;;
19869;SDS011;10097;50.862;4.696;2023-05-10T03:50:58;17.33;;;8.90;;
19869;SDS011;10097;50.862;4.696;2023-05-10T03:53:24;21.70;;;10.63;;
19869;SDS011;10097;50.862;4.696;2023-05-10T03:55:50;22.73;;;9.77;;
19869;SDS011;10097;50.862;4.696;2023-05-10T03:58:16;23.90;;;10.63;;
19869;SDS011;10097;50.862;4.696;2023-05-10T04:00:41;24.77;;;10.73;;
19869;SDS011;10097;50.862;4.696;2023-05-10T04:03:10;23.60;;;11.00;;
19869;SDS011;10097;50.862;4.696;2023-05-10T04:05:36;24.60;;;11.60;;
19869;SDS011;10097;50.862;4.696;2023-05-10T04:08:02;23.90;;;11.97;;
19869;SDS011;10097;50.862;4.696;2023-05-10T04:10:28;25.53;;;12.33;;
19869;SDS011;10097;50.862;4.696;2023-05-10T04:12:54;30.20;;;13.43;;
19869;SDS011;10097;50.862;4.696;2023-05-10T04:15:20;25.17;;;13.40;;
19869;SDS011;10097;50.862;4.696;2023-05-10T04:17:45;28.80;;;12.93;;
19869;SDS011;10097;50.862;4.696;2023-05-10T04:20:11;32.13;;;14.73;;
19869;SDS011;10097;50.862;4.696;2023-05-10T04:22:38;34.13;;;14.47;;
19869;SDS011;10097;50.862;4.696;2023-05-10T04:25:04;28.27;;;14.33;;
19869;SDS011;10097;50.862;4.696;2023-05-10T04:27:30;34.57;;;15.80;;
19869;SDS011;10097;50.862;4.696;2023-05-10T04:29:56;28.10;;;14.73;;
19869;SDS011;10097;50.862;4.696;2023-05-10T04:32:22;33.03;;;15.53;;
19869;SDS011;10097;50.862;4.696;2023-05-10T04:34:47;33.00;;;15.63;;
19869;SDS011;10097;50.862;4.696;2023-05-10T04:37:13;32.30;;;15.47;;
19869;SDS011;10097;50.862;4.696;2023-05-10T04:39:39;32.60;;;15.33;;
19869;SDS011;10097;50.862;4.696;2023-05-10T04:42:04;37.60;;;16.30;;
19869;SDS011;10097;50.862;4.696;2023-05-10T04:44:31;33.43;;;15.47;;
19869;SDS011;10097;50.862;4.696;2023-05-10T04:46:57;35.87;;;16.73;;
19869;SDS011;10097;50.862;4.696;2023-05-10T04:49:22;35.33;;;17.23;;
19869;SDS011;10097;50.862;4.696;2023-05-10T04:51:48;34.67;;;16.37;;
19869;SDS011;10097;50.862;4.696;2023-05-10T04:54:14;39.53;;;17.17;;
19869;SDS011;10097;50.862;4.696;2023-05-10T04:56:39;37.47;;;17.73;;
19869;SDS011;10097;50.862;4.696;2023-05-10T04:59:05;39.43;;;17.00;;
19869;SDS011;10097;50.862;4.696;2023-05-10T05:01:31;38.93;;;17.73;;
19869;SDS011;10097;50.862;4.696;2023-05-10T05:03:57;35.87;;;17.60;;
19869;SDS011;10097;50.862;4.696;2023-05-10T05:06:23;39.63;;;18.33;;
19869;SDS011;10097;50.862;4.696;2023-05-10T05:08:50;37.43;;;18.50;;
19869;SDS011;10097;50.862;4.696;2023-05-10T05:11:16;39.37;;;18.43;;
19869;SDS011;10097;50.862;4.696;2023-05-10T05:13:42;42.40;;;19.37;;
19869;SDS011;10097;50.862;4.696;2023-05-10T05:16:08;39.90;;;19.27;;
19869;SDS011;10097;50.862;4.696;2023-05-10T05:18:33;40.17;;;19.20;;
19869;SDS011;10097;50.862;4.696;2023-05-10T05:20:59;41.60;;;20.40;;
19869;SDS011;10097;50.862;4.696;2023-05-10T05:23:25;40.30;;;20.40;;
19869;SDS011;10097;50.862;4.696;2023-05-10T05:25:52;42.30;;;19.60;;
19869;SDS011;10097;50.862;4.696;2023-05-10T05:28:18;40.13;;;19.20;;
19869;SDS011;10097;50.862;4.696;2023-05-10T05:30:45;44.30;;;19.60;;
19869;SDS011;10097;50.862;4.696;2023-05-10T05:33:11;38.40;;;19.23;;
19869;SDS011;10097;50.862;4.696;2023-05-10T05:35:38;43.87;;;20.27;;
19869;SDS011;10097;50.862;4.696;2023-05-10T05:38:03;41.27;;;21.07;;
19869;SDS011;10097;50.862;4.696;2023-05-10T05:40:29;40.40;;;19.87;;
19869;SDS011;10097;50.862;4.696;2023-05-10T05:42:55;46.03;;;21.57;;
19869;SDS011;10097;50.862;4.696;2023-05-10T05:45:20;40.30;;;19.50;;
19869;SDS011;10097;50.862;4.696;2023-05-10T05:47:46;45.60;;;21.57;;
19869;SDS011;10097;50.862;4.696;2023-05-10T05:50:12;44.73;;;21.40;;
19869;SDS011;10097;50.862;4.696;2023-05-10T05:52:37;42.50;;;20.60;;
19869;SDS011;10097;50.862;4.696;2023-05-10T05:55:03;43.67;;;20.50;;
19869;SDS011;10097;50.862;4.696;2023-05-10T05:57:29;42.20;;;21.13;;
19869;SDS011;10097;50.862;4.696;2023-05-10T05:59:55;41.87;;;19.47;;
19869;SDS011;10097;50.862;4.696;2023-05-10T06:02:21;43.23;;;21.60;;
19869;SDS011;10097;50.862;4.696;2023-05-10T06:04:46;45.33;;;20.93;;
19869;SDS011;10097;50.862;4.696;2023-05-10T06:07:12;42.20;;;21.33;;
19869;SDS011;10097;50.862;4.696;2023-05-10T06:09:38;43.73;;;20.03;;
19869;SDS011;10097;50.862;4.696;2023-05-10T06:12:03;44.17;;;21.60;;
19869;SDS011;10097;50.862;4.696;2023-05-10T06:14:30;47.00;;;22.47;;
19869;SDS011;10097;50.862;4.696;2023-05-10T06:16:55;44.73;;;21.77;;
19869;SDS011;10097;50.862;4.696;2023-05-10T06:19:21;40.37;;;19.60;;
19869;SDS011;10097;50.862;4.696;2023-05-10T06:21:47;37.53;;;20.30;;
19869;SDS011;10097;50.862;4.696;2023-05-10T06:24:12;40.00;;;19.77;;
19869;SDS011;10097;50.862;4.696;2023-05-10T06:26:38;39.97;;;19.33;;
19869;SDS011;10097;50.862;4.696;2023-05-10T06:29:04;41.93;;;19.43;;
19869;SDS011;10097;50.862;4.696;2023-05-10T06:31:29;35.60;;;19.13;;
19869;SDS011;10097;50.862;4.696;2023-05-10T06:33:55;37.37;;;18.87;;
19869;SDS011;10097;50.862;4.696;2023-05-10T06:36:21;37.57;;;19.30;;
19869;SDS011;10097;50.862;4.696;2023-05-10T06:38:47;39.90;;;18.87;;
19869;SDS011;10097;50.862;4.696;2023-05-10T06:41:13;33.47;;;17.27;;
19869;SDS011;10097;50.862;4.696;2023-05-10T06:43:39;29.40;;;16.90;;
19869;SDS011;10097;50.862;4.696;2023-05-10T06:46:06;24.23;;;13.13;;
19869;SDS011;10097;50.862;4.696;2023-05-10T06:48:32;20.20;;;10.32;;
19869;SDS011;10097;50.862;4.696;2023-05-10T06:50:58;20.43;;;10.03;;
19869;SDS011;10097;50.862;4.696;2023-05-10T06:53:23;14.15;;;6.80;;
19869;SDS011;10097;50.862;4.696;2023-05-10T06:55:49;12.63;;;6.17;;
19869;SDS011;10097;50.862;4.696;2023-05-10T06:58:15;10.77;;;5.43;;
19869;SDS011;10097;50.862;4.696;2023-05-10T07:00:40;12.30;;;4.50;;
19869;SDS011;10097;50.862;4.696;2023-05-10T07:03:08;8.45;;;3.63;;
19869;SDS011;10097;50.862;4.696;2023-05-10T07:05:34;9.20;;;3.95;;
19869;SDS011;10097;50.862;4.696;2023-05-10T07:08:00;8.55;;;3.15;;
19869;SDS011;10097;50.862;4.696;2023-05-10T07:10:26;9.73;;;4.07;;
19869;SDS011;10097;50.862;4.696;2023-05-10T07:12:52;12.03;;;5.63;;
19869;SDS011;10097;50.862;4.696;2023-05-10T07:15:17;12.40;;;5.10;;
19869;SDS011;10097;50.862;4.696;2023-05-10T07:17:43;9.70;;;4.37;;
19869;SDS011;10097;50.862;4.696;2023-05-10T07:20:09;10.87;;;4.73;;
19869;SDS011;10097;50.862;4.696;2023-05-10T07:22:35;12.43;;;4.25;;
19869;SDS011;10097;50.862;4.696;2023-05-10T07:25:01;10.83;;;4.13;;
19869;SDS011;10097;50.862;4.696;2023-05-10T07:27:27;11.15;;;4.68;;
19869;SDS011;10097;50.862;4.696;2023-05-10T07:29:53;10.23;;;3.97;;
19869;SDS011;10097;50.862;4.696;2023-05-10T07:32:19;8.80;;;3.67;;
19869;SDS011;10097;50.862;4.696;2023-05-10T07:34:45;10.35;;;3.70;;
19869;SDS011;10097;50.862;4.696;2023-05-10T07:37:11;7.73;;;2.90;;
19869;SDS011;10097;50.862;4.696;2023-05-10T07:39:37;8.27;;;2.93;;
19869;SDS011;10097;50.862;4.696;2023-05-10T07:42:02;5.27;;;2.60;;
19869;SDS011;10097;50.862;4.696;2023-05-10T07:44:28;6.57;;;2.73;;
19869;SDS011;10097;50.862;4.696;2023-05-10T07:46:54;8.03;;;2.43;;
19869;SDS011;10097;50.862;4.696;2023-05-10T07:49:20;5.50;;;2.60;;
19869;SDS011;10097;50.862;4.696;2023-05-10T07:51:49;7.60;;;2.97;;
19869;SDS011;10097;50.862;4.696;2023-05-10T07:54:15;9.40;;;3.80;;
19869;SDS011;10097;50.862;4.696;2023-05-10T07:56:40;9.57;;;4.13;;
19869;SDS011;10097;50.862;4.696;2023-05-10T07:59:14;11.10;;;5.23;;
19869;SDS011;10097;50.862;4.696;2023-05-10T08:01:41;11.60;;;5.13;;
19869;SDS011;10097;50.862;4.696;2023-05-10T08:04:07;12.80;;;6.00;;
19869;SDS011;10097;50.862;4.696;2023-05-10T08:06:33;13.93;;;6.07;;
19869;SDS011;10097;50.862;4.696;2023-05-10T08:08:59;13.90;;;6.17;;
19869;SDS011;10097;50.862;4.696;2023-05-10T08:11:25;16.00;;;6.67;;
19869;SDS011;10097;50.862;4.696;2023-05-10T08:13:52;16.13;;;7.00;;
19869;SDS011;10097;50.862;4.696;2023-05-10T08:16:18;17.07;;;7.60;;
19869;SDS011;10097;50.862;4.696;2023-05-10T08:18:44;21.73;;;7.90;;
19869;SDS011;10097;50.862;4.696;2023-05-10T08:21:11;19.57;;;8.00;;
19869;SDS011;10097;50.862;4.696;2023-05-10T08:23:40;15.33;;;7.37;;
19869;SDS011;10097;50.862;4.696;2023-05-10T08:26:06;18.13;;;7.93;;
19869;SDS011;10097;50.862;4.696;2023-05-10T08:28:32;18.77;;;7.87;;
19869;SDS011;10097;50.862;4.696;2023-05-10T08:30:57;19.13;;;7.83;;
19869;SDS011;10097;50.862;4.696;2023-05-10T08:33:24;19.30;;;8.27;;
19869;SDS011;10097;50.862;4.696;2023-05-10T08:35:50;19.93;;;8.47;;
19869;SDS011;10097;50.862;4.696;2023-05-10T08:38:17;15.70;;;7.70;;
19869;SDS011;10097;50.862;4.696;2023-05-10T08:40:43;16.80;;;7.77;;
19869;SDS011;10097;50.862;4.696;2023-05-10T08:43:10;17.57;;;7.87;;
19869;SDS011;10097;50.862;4.696;2023-05-10T08:45:41;19.67;;;8.57;;
19869;SDS011;10097;50.862;4.696;2023-05-10T08:48:08;18.33;;;7.40;;
19869;SDS011;10097;50.862;4.696;2023-05-10T08:50:36;17.77;;;7.90;;
19869;SDS011;10097;50.862;4.696;2023-05-10T08:53:10;17.30;;;7.63;;
19869;SDS011;10097;50.862;4.696;2023-05-10T08:55:37;19.83;;;8.03;;
19869;SDS011;10097;50.862;4.696;2023-05-10T08:58:06;18.17;;;7.27;;
19869;SDS011;10097;50.862;4.696;2023-05-10T09:00:32;17.23;;;7.13;;
19869;SDS011;10097;50.862;4.696;2023-05-10T09:02:58;18.27;;;7.63;;
19869;SDS011;10097;50.862;4.696;2023-05-10T09:05:24;14.30;;;6.80;;
19869;SDS011;10097;50.862;4.696;2023-05-10T09:07:51;14.53;;;6.50;;
19869;SDS011;10097;50.862;4.696;2023-05-10T09:10:16;14.30;;;6.47;;
19869;SDS011;10097;50.862;4.696;2023-05-10T09:12:43;14.80;;;6.53;;
19869;SDS011;10097;50.862;4.696;2023-05-10T09:15:10;15.03;;;6.20;;
19869;SDS011;10097;50.862;4.696;2023-05-10T09:17:37;12.97;;;5.83;;
19869;SDS011;10097;50.862;4.696;2023-05-10T09:20:05;15.50;;;6.10;;
19869;SDS011;10097;50.862;4.696;2023-05-10T09:22:32;12.53;;;5.87;;
19869;SDS011;10097;50.862;4.696;2023-05-10T09:25:05;12.07;;;5.57;;
19869;SDS011;10097;50.862;4.696;2023-05-10T09:27:31;14.47;;;5.83;;
19869;SDS011;10097;50.862;4.696;2023-05-10T09:29:57;12.07;;;5.63;;
19869;SDS011;10097;50.862;4.696;2023-05-10T09:32:35;11.03;;;4.60;;
19869;SDS011;10097;50.862;4.696;2023-05-10T09:35:18;9.90;;;4.03;;
19869;SDS011;10097;50.862;4.696;2023-05-10T09:37:46;9.20;;;3.97;;
19869;SDS011;10097;50.862;4.696;2023-05-10T09:40:14;11.37;;;4.30;;
19869;SDS011;10097;50.862;4.696;2023-05-10T09:43:03;10.53;;;3.67;;
19869;SDS011;10097;50.862;4.696;2023-05-10T09:45:31;9.40;;;3.50;;
19869;SDS011;10097;50.862;4.696;2023-05-10T09:48:01;7.80;;;3.00;;
19869;SDS011;10097;50.862;4.696;2023-05-10T09:50:28;8.47;;;3.10;;
19869;SDS011;10097;50.862;4.696;2023-05-10T09:52:55;10.20;;;3.13;;
19869;SDS011;10097;50.862;4.696;2023-05-10T09:55:25;7.23;;;3.10;;
19869;SDS011;10097;50.862;4.696;2023-05-10T09:58:03;5.80;;;2.60;;
19869;SDS011;10097;50.862;4.696;2023-05-10T10:00:34;7.80;;;2.70;;
19869;SDS011;10097;50.862;4.696;2023-05-10T10:03:04;7.33;;;2.73;;
19869;SDS011;10097;50.862;4.696;2023-05-10T10:05:31;5.13;;;2.63;;
19869;SDS011;10097;50.862;4.696;2023-05-10T10:07:58;6.87;;;3.00;;
19869;SDS011;10097;50.862;4.696;2023-05-10T10:10:25;6.35;;;2.45;;
19869;SDS011;10097;50.862;4.696;2023-05-10T10:12:52;6.55;;;2.25;;
19869;SDS011;10097;50.862;4.696;2023-05-10T10:15:18;6.28;;;2.08;;
19869;SDS011;10097;50.862;4.696;2023-05-10T10:17:45;6.03;;;2.35;;
19869;SDS011;10097;50.862;4.696;2023-05-10T10:20:13;5.72;;;2.58;;
19869;SDS011;10097;50.862;4.696;2023-05-10T10:22:39;5.43;;;2.25;;
19869;SDS011;10097;50.862;4.696;2023-05-10T10:25:05;5.50;;;2.50;;
19869;SDS011;10097;50.862;4.696;2023-05-10T10:35:50;5.93;;;2.57;;
19869;SDS011;10097;50.862;4.696;2023-05-10T10:38:18;5.22;;;2.20;;
19869;SDS011;10097;50.862;4.696;2023-05-10T10:40:43;3.72;;;1.98;;
19869;SDS011;10097;50.862;4.696;2023-05-10T10:43:28;5.27;;;1.90;;
19869;SDS011;10097;50.862;4.696;2023-05-10T10:48:35;3.05;;;1.52;;
19869;SDS011;10097;50.862;4.696;2023-05-10T10:51:01;4.20;;;1.97;;
19869;SDS011;10097;50.862;4.696;2023-05-10T10:53:27;4.27;;;1.70;;
19869;SDS011;10097;50.862;4.696;2023-05-10T10:56:10;3.30;;;1.37;;
19869;SDS011;10097;50.862;4.696;2023-05-10T10:58:38;3.38;;;1.38;;
19869;SDS011;10097;50.862;4.696;2023-05-10T11:01:11;4.20;;;1.30;;
19869;SDS011;10097;50.862;4.696;2023-05-10T11:03:45;3.50;;;1.70;;
19869;SDS011;10097;50.862;4.696;2023-05-10T11:06:29;2.67;;;1.27;;
19869;SDS011;10097;50.862;4.696;2023-05-10T11:08:57;2.95;;;1.60;;
19869;SDS011;10097;50.862;4.696;2023-05-10T11:11:24;6.15;;;1.60;;
19869;SDS011;10097;50.862;4.696;2023-05-10T11:13:50;3.85;;;1.17;;
19869;SDS011;10097;50.862;4.696;2023-05-10T11:16:23;2.33;;;1.00;;
19869;SDS011;10097;50.862;4.696;2023-05-10T11:18:57;3.00;;;1.10;;
19869;SDS011;10097;50.862;4.696;2023-05-10T11:21:23;3.47;;;0.80;;
19869;SDS011;10097;50.862;4.696;2023-05-10T11:23:50;1.52;;;1.00;;
19869;SDS011;10097;50.862;4.696;2023-05-10T11:26:17;4.00;;;1.20;;
19869;SDS011;10097;50.862;4.696;2023-05-10T11:28:44;2.65;;;0.95;;
19869;SDS011;10097;50.862;4.696;2023-05-10T11:31:14;1.55;;;0.90;;
19869;SDS011;10097;50.862;4.696;2023-05-10T11:33:44;1.83;;;0.93;;
19869;SDS011;10097;50.862;4.696;2023-05-10T11:36:11;1.50;;;0.95;;
19869;SDS011;10097;50.862;4.696;2023-05-10T11:38:39;2.30;;;0.90;;
19869;SDS011;10097;50.862;4.696;2023-05-10T11:41:04;1.95;;;0.98;;
19869;SDS011;10097;50.862;4.696;2023-05-10T11:43:30;2.28;;;0.93;;
19869;SDS011;10097;50.862;4.696;2023-05-10T11:45:56;1.75;;;0.77;;
19869;SDS011;10097;50.862;4.696;2023-05-10T11:48:22;2.97;;;1.08;;
19869;SDS011;10097;50.862;4.696;2023-05-10T11:50:49;1.40;;;0.88;;
19869;SDS011;10097;50.862;4.696;2023-05-10T11:53:15;1.48;;;1.02;;
19869;SDS011;10097;50.862;4.696;2023-05-10T11:55:40;3.13;;;1.10;;
19869;SDS011;10097;50.862;4.696;2023-05-10T11:58:06;3.28;;;1.30;;
19869;SDS011;10097;50.862;4.696;2023-05-10T12:00:32;2.30;;;1.23;;
19869;SDS011;10097;50.862;4.696;2023-05-10T12:02:58;4.05;;;1.23;;
19869;SDS011;10097;50.862;4.696;2023-05-10T12:05:25;3.25;;;1.23;;
19869;SDS011;10097;50.862;4.696;2023-05-10T12:07:51;2.55;;;1.42;;
19869;SDS011;10097;50.862;4.696;2023-05-10T12:10:17;3.90;;;1.00;;
19869;SDS011;10097;50.862;4.696;2023-05-10T12:12:51;3.38;;;1.40;;
19869;SDS011;10097;50.862;4.696;2023-05-10T12:15:22;2.90;;;1.38;;
19869;SDS011;10097;50.862;4.696;2023-05-10T12:17:49;4.78;;;1.10;;
19869;SDS011;10097;50.862;4.696;2023-05-10T12:20:22;1.85;;;1.02;;
19869;SDS011;10097;50.862;4.696;2023-05-10T12:22:53;2.90;;;1.42;;
19869;SDS011;10097;50.862;4.696;2023-05-10T12:25:23;2.88;;;1.42;;
19869;SDS011;10097;50.862;4.696;2023-05-10T12:27:55;2.00;;;1.30;;
19869;SDS011;10097;50.862;4.696;2023-05-10T12:30:28;2.40;;;1.42;;
19869;SDS011;10097;50.862;4.696;2023-05-10T12:33:02;7.53;;;1.50;;
19869;SDS011;10097;50.862;4.696;2023-05-10T12:35:45;2.42;;;1.20;;
19869;SDS011;10097;50.862;4.696;2023-05-10T12:38:25;2.28;;;1.20;;
19869;SDS011;10097;50.862;4.696;2023-05-10T12:40:58;3.90;;;1.98;;
19869;SDS011;10097;50.862;4.696;2023-05-10T12:43:25;3.75;;;1.58;;
19869;SDS011;10097;50.862;4.696;2023-05-10T12:45:51;2.55;;;1.40;;
19869;SDS011;10097;50.862;4.696;2023-05-10T12:48:16;5.90;;;1.48;;
19869;SDS011;10097;50.862;4.696;2023-05-10T12:50:42;1.48;;;1.00;;
19869;SDS011;10097;50.862;4.696;2023-05-10T12:53:08;2.35;;;1.30;;
19869;SDS011;10097;50.862;4.696;2023-05-10T12:55:33;2.85;;;1.38;;
19869;SDS011;10097;50.862;4.696;2023-05-10T12:57:59;2.20;;;0.90;;
19869;SDS011;10097;50.862;4.696;2023-05-10T13:00:25;3.40;;;1.30;;
19869;SDS011;10097;50.862;4.696;2023-05-10T13:02:51;2.42;;;1.00;;
19869;SDS011;10097;50.862;4.696;2023-05-10T13:05:17;1.48;;;0.75;;
19869;SDS011;10097;50.862;4.696;2023-05-10T13:07:42;2.88;;;0.75;;
19869;SDS011;10097;50.862;4.696;2023-05-10T13:10:09;2.13;;;1.00;;
19869;SDS011;10097;50.862;4.696;2023-05-10T13:12:35;2.15;;;0.90;;
19869;SDS011;10097;50.862;4.696;2023-05-10T13:15:01;3.28;;;1.00;;
19869;SDS011;10097;50.862;4.696;2023-05-10T13:17:28;2.78;;;1.08;;
19869;SDS011;10097;50.862;4.696;2023-05-10T13:19:54;2.33;;;1.05;;
19869;SDS011;10097;50.862;4.696;2023-05-10T13:22:20;1.85;;;1.02;;
19869;SDS011;10097;50.862;4.696;2023-05-10T13:24:45;2.15;;;1.00;;
19869;SDS011;10097;50.862;4.696;2023-05-10T13:27:11;2.28;;;0.93;;
19869;SDS011;10097;50.862;4.696;2023-05-10T13:29:37;4.85;;;1.10;;
19869;SDS011;10097;50.862;4.696;2023-05-10T13:32:02;1.52;;;0.90;;
19869;SDS011;10097;50.862;4.696;2023-05-10T13:34:28;4.68;;;1.33;;
19869;SDS011;10097;50.862;4.696;2023-05-10T13:36:54;3.67;;;1.05;;
19869;SDS011;10097;50.862;4.696;2023-05-10T13:39:21;7.82;;;1.00;;
19869;SDS011;10097;50.862;4.696;2023-05-10T13:41:47;1.90;;;0.93;;
19869;SDS011;10097;50.862;4.696;2023-05-10T13:44:13;1.60;;;1.10;;
19869;SDS011;10097;50.862;4.696;2023-05-10T13:46:40;1.77;;;1.13;;
19869;SDS011;10097;50.862;4.696;2023-05-10T13:49:07;3.13;;;1.00;;
19869;SDS011;10097;50.862;4.696;2023-05-10T13:51:34;4.20;;;1.38;;
19869;SDS011;10097;50.862;4.696;2023-05-10T13:54:00;2.47;;;1.33;;
19869;SDS011;10097;50.862;4.696;2023-05-10T13:56:27;2.88;;;1.42;;
19869;SDS011;10097;50.862;4.696;2023-05-10T13:58:52;2.17;;;1.00;;
19869;SDS011;10097;50.862;4.696;2023-05-10T14:01:18;2.00;;;0.98;;
19869;SDS011;10097;50.862;4.696;2023-05-10T14:03:44;2.08;;;0.95;;
19869;SDS011;10097;50.862;4.696;2023-05-10T14:06:10;4.07;;;1.45;;
19869;SDS011;10097;50.862;4.696;2023-05-10T14:08:36;9.38;;;1.42;;
19869;SDS011;10097;50.862;4.696;2023-05-10T14:11:01;2.47;;;1.33;;
19869;SDS011;10097;50.862;4.696;2023-05-10T14:13:27;3.33;;;1.40;;
19869;SDS011;10097;50.862;4.696;2023-05-10T14:15:53;3.97;;;1.40;;
19869;SDS011;10097;50.862;4.696;2023-05-10T14:18:19;5.10;;;1.20;;
19869;SDS011;10097;50.862;4.696;2023-05-10T14:20:45;5.82;;;1.73;;
19869;SDS011;10097;50.862;4.696;2023-05-10T14:23:11;3.45;;;1.55;;
19869;SDS011;10097;50.862;4.696;2023-05-10T14:25:40;3.17;;;1.40;;
19869;SDS011;10097;50.862;4.696;2023-05-10T14:28:05;3.65;;;1.60;;
19869;SDS011;10097;50.862;4.696;2023-05-10T14:30:31;3.08;;;1.67;;
19869;SDS011;10097;50.862;4.696;2023-05-10T14:32:59;4.60;;;2.28;;
19869;SDS011;10097;50.862;4.696;2023-05-10T14:35:26;6.28;;;2.22;;
19869;SDS011;10097;50.862;4.696;2023-05-10T14:37:52;6.15;;;2.40;;
19869;SDS011;10097;50.862;4.696;2023-05-10T14:40:18;4.78;;;2.10;;
19869;SDS011;10097;50.862;4.696;2023-05-10T14:42:43;6.35;;;2.38;;
19869;SDS011;10097;50.862;4.696;2023-05-10T14:45:09;3.20;;;1.60;;
19869;SDS011;10097;50.862;4.696;2023-05-10T14:47:36;3.38;;;2.10;;
19869;SDS011;10097;50.862;4.696;2023-05-10T14:50:01;5.97;;;2.17;;
19869;SDS011;10097;50.862;4.696;2023-05-10T14:52:27;6.65;;;2.05;;
19869;SDS011;10097;50.862;4.696;2023-05-10T14:54:53;4.45;;;1.95;;
19869;SDS011;10097;50.862;4.696;2023-05-10T14:57:18;7.38;;;2.17;;
19869;SDS011;10097;50.862;4.696;2023-05-10T14:59:44;4.45;;;2.15;;
19869;SDS011;10097;50.862;4.696;2023-05-10T15:02:10;5.63;;;2.10;;
19869;SDS011;10097;50.862;4.696;2023-05-10T15:04:36;5.47;;;1.95;;
19869;SDS011;10097;50.862;4.696;2023-05-10T15:07:01;8.25;;;2.65;;
19869;SDS011;10097;50.862;4.696;2023-05-10T15:09:28;5.88;;;2.50;;